sensor_id;sensor_type;location;lat;lon;timestamp;temperature;humidity
53294;DHT22;39181;53.440;5.644;2024-02-26T00:01:48;5.00;99.90
53294;DHT22;39181;53.440;5.644;2024-02-26T00:04:13;5.00;99.90
53294;DHT22;39181;53.440;5.644;2024-02-26T00:06:39;4.90;99.90
53294;DHT22;39181;53.440;5.644;2024-02-26T00:09:07;4.90;99.90
53294;DHT22;39181;53.440;5.644;2024-02-26T00:11:32;4.70;99.90
53294;DHT22;39181;53.440;5.644;2024-02-26T00:13:58;4.80;99.90
53294;DHT22;39181;53.440;5.644;2024-02-26T00:16:24;5.00;99.90
53294;DHT22;39181;53.440;5.644;2024-02-26T00:18:50;4.70;99.90
53294;DHT22;39181;53.440;5.644;2024-02-26T00:21:15;5.10;99.90
53294;DHT22;39181;53.440;5.644;2024-02-26T00:23:41;4.70;99.90
53294;DHT22;39181;53.440;5.644;2024-02-26T00:26:06;4.80;99.90
53294;DHT22;39181;53.440;5.644;2024-02-26T00:28:33;5.10;99.90
53294;DHT22;39181;53.440;5.644;2024-02-26T00:30:58;4.70;99.90
53294;DHT22;39181;53.440;5.644;2024-02-26T00:33:24;4.70;99.90
53294;DHT22;39181;53.440;5.644;2024-02-26T00:35:49;5.00;99.90
53294;DHT22;39181;53.440;5.644;2024-02-26T00:38:15;5.10;99.90
53294;DHT22;39181;53.440;5.644;2024-02-26T00:40:41;4.70;99.90
53294;DHT22;39181;53.440;5.644;2024-02-26T00:43:07;4.90;99.90
53294;DHT22;39181;53.440;5.644;2024-02-26T00:45:32;5.20;99.90
53294;DHT22;39181;53.440;5.644;2024-02-26T00:47:58;4.70;99.90
53294;DHT22;39181;53.440;5.644;2024-02-26T00:50:26;4.90;99.90
53294;DHT22;39181;53.440;5.644;2024-02-26T00:52:52;4.70;99.90
53294;DHT22;39181;53.440;5.644;2024-02-26T00:55:18;5.00;99.90
53294;DHT22;39181;53.440;5.644;2024-02-26T00:57:43;5.10;99.90
53294;DHT22;39181;53.440;5.644;2024-02-26T01:00:09;5.00;99.90
53294;DHT22;39181;53.440;5.644;2024-02-26T01:02:35;5.10;99.90
53294;DHT22;39181;53.440;5.644;2024-02-26T01:05:00;5.00;99.90
53294;DHT22;39181;53.440;5.644;2024-02-26T01:07:26;5.10;99.90
53294;DHT22;39181;53.440;5.644;2024-02-26T01:09:52;4.90;99.90
53294;DHT22;39181;53.440;5.644;2024-02-26T01:12:17;4.90;99.90
53294;DHT22;39181;53.440;5.644;2024-02-26T01:14:43;4.90;99.90
53294;DHT22;39181;53.440;5.644;2024-02-26T01:17:08;4.90;99.90
53294;DHT22;39181;53.440;5.644;2024-02-26T01:19:34;4.90;99.90
53294;DHT22;39181;53.440;5.644;2024-02-26T01:21:59;4.70;99.90
53294;DHT22;39181;53.440;5.644;2024-02-26T01:24:25;5.00;99.90
53294;DHT22;39181;53.440;5.644;2024-02-26T01:26:51;4.90;99.90
53294;DHT22;39181;53.440;5.644;2024-02-26T01:29:16;5.00;99.90
53294;DHT22;39181;53.440;5.644;2024-02-26T01:31:42;5.00;99.90
53294;DHT22;39181;53.440;5.644;2024-02-26T01:34:08;5.10;99.90
53294;DHT22;39181;53.440;5.644;2024-02-26T01:36:33;4.90;99.90
53294;DHT22;39181;53.440;5.644;2024-02-26T01:38:59;4.90;99.90
53294;DHT22;39181;53.440;5.644;2024-02-26T01:41:25;4.90;99.90
53294;DHT22;39181;53.440;5.644;2024-02-26T01:43:50;4.90;99.90
53294;DHT22;39181;53.440;5.644;2024-02-26T01:46:16;5.00;99.90
53294;DHT22;39181;53.440;5.644;2024-02-26T01:48:44;4.90;99.90
53294;DHT22;39181;53.440;5.644;2024-02-26T01:51:12;5.20;99.90
53294;DHT22;39181;53.440;5.644;2024-02-26T01:53:40;5.20;99.90
53294;DHT22;39181;53.440;5.644;2024-02-26T01:56:06;4.90;99.90
53294;DHT22;39181;53.440;5.644;2024-02-26T01:58:34;4.90;99.90
53294;DHT22;39181;53.440;5.644;2024-02-26T02:01:01;5.00;99.90
53294;DHT22;39181;53.440;5.644;2024-02-26T02:03:28;4.90;99.90
53294;DHT22;39181;53.440;5.644;2024-02-26T02:05:54;4.80;99.90
53294;DHT22;39181;53.440;5.644;2024-02-26T02:08:19;4.90;99.90
53294;DHT22;39181;53.440;5.644;2024-02-26T02:10:45;5.00;99.90
53294;DHT22;39181;53.440;5.644;2024-02-26T02:13:13;4.70;99.90
53294;DHT22;39181;53.440;5.644;2024-02-26T02:15:39;4.90;99.90
53294;DHT22;39181;53.440;5.644;2024-02-26T02:18:05;4.90;99.90
53294;DHT22;39181;53.440;5.644;2024-02-26T02:20:34;4.70;99.90
53294;DHT22;39181;53.440;5.644;2024-02-26T02:23:01;4.80;99.90
53294;DHT22;39181;53.440;5.644;2024-02-26T02:25:26;4.90;99.90
53294;DHT22;39181;53.440;5.644;2024-02-26T02:27:54;4.70;99.90
53294;DHT22;39181;53.440;5.644;2024-02-26T02:30:21;4.70;99.90
53294;DHT22;39181;53.440;5.644;2024-02-26T02:32:47;4.80;99.90
53294;DHT22;39181;53.440;5.644;2024-02-26T02:35:14;4.90;99.90
53294;DHT22;39181;53.440;5.644;2024-02-26T02:37:39;4.80;99.90
53294;DHT22;39181;53.440;5.644;2024-02-26T02:40:06;5.10;99.90
53294;DHT22;39181;53.440;5.644;2024-02-26T02:42:32;5.10;99.90
53294;DHT22;39181;53.440;5.644;2024-02-26T02:44:57;4.80;99.90
53294;DHT22;39181;53.440;5.644;2024-02-26T02:47:23;4.80;99.90
53294;DHT22;39181;53.440;5.644;2024-02-26T02:49:48;5.20;99.90
53294;DHT22;39181;53.440;5.644;2024-02-26T02:52:14;5.10;99.90
53294;DHT22;39181;53.440;5.644;2024-02-26T02:54:40;4.90;99.90
53294;DHT22;39181;53.440;5.644;2024-02-26T02:57:06;4.90;99.90
53294;DHT22;39181;53.440;5.644;2024-02-26T02:59:31;5.20;99.90
53294;DHT22;39181;53.440;5.644;2024-02-26T03:01:57;4.90;99.90
53294;DHT22;39181;53.440;5.644;2024-02-26T03:04:22;5.10;99.90
53294;DHT22;39181;53.440;5.644;2024-02-26T03:06:48;4.80;99.90
53294;DHT22;39181;53.440;5.644;2024-02-26T03:09:13;5.10;99.90
53294;DHT22;39181;53.440;5.644;2024-02-26T03:11:39;5.00;99.90
53294;DHT22;39181;53.440;5.644;2024-02-26T03:14:05;5.20;99.90
53294;DHT22;39181;53.440;5.644;2024-02-26T03:16:31;4.80;99.90
53294;DHT22;39181;53.440;5.644;2024-02-26T03:18:57;4.90;99.90
53294;DHT22;39181;53.440;5.644;2024-02-26T03:21:24;4.90;99.90
53294;DHT22;39181;53.440;5.644;2024-02-26T03:23:50;5.00;99.90
53294;DHT22;39181;53.440;5.644;2024-02-26T03:26:15;4.90;99.90
53294;DHT22;39181;53.440;5.644;2024-02-26T03:28:41;5.20;99.90
53294;DHT22;39181;53.440;5.644;2024-02-26T03:31:07;5.20;99.90
53294;DHT22;39181;53.440;5.644;2024-02-26T03:33:32;5.00;99.90
53294;DHT22;39181;53.440;5.644;2024-02-26T03:35:58;5.10;99.90
53294;DHT22;39181;53.440;5.644;2024-02-26T03:38:23;5.40;99.90
53294;DHT22;39181;53.440;5.644;2024-02-26T03:40:49;5.30;99.90
53294;DHT22;39181;53.440;5.644;2024-02-26T03:43:15;5.30;99.90
53294;DHT22;39181;53.440;5.644;2024-02-26T03:45:40;5.40;99.90
53294;DHT22;39181;53.440;5.644;2024-02-26T03:48:06;5.20;99.90
53294;DHT22;39181;53.440;5.644;2024-02-26T03:50:32;5.60;99.90
53294;DHT22;39181;53.440;5.644;2024-02-26T03:52:57;5.50;99.90
53294;DHT22;39181;53.440;5.644;2024-02-26T03:55:23;5.30;99.90
53294;DHT22;39181;53.440;5.644;2024-02-26T03:57:54;5.40;99.90
53294;DHT22;39181;53.440;5.644;2024-02-26T04:00:19;5.30;99.90
53294;DHT22;39181;53.440;5.644;2024-02-26T04:02:47;5.50;99.90
53294;DHT22;39181;53.440;5.644;2024-02-26T04:05:13;5.20;99.90
53294;DHT22;39181;53.440;5.644;2024-02-26T04:07:40;5.30;99.90
53294;DHT22;39181;53.440;5.644;2024-02-26T04:10:12;5.50;99.90
53294;DHT22;39181;53.440;5.644;2024-02-26T04:12:39;5.40;99.90
53294;DHT22;39181;53.440;5.644;2024-02-26T04:15:07;5.20;99.90
53294;DHT22;39181;53.440;5.644;2024-02-26T04:17:33;5.20;99.90
53294;DHT22;39181;53.440;5.644;2024-02-26T04:19:58;5.40;99.90
53294;DHT22;39181;53.440;5.644;2024-02-26T04:22:24;5.30;99.90
53294;DHT22;39181;53.440;5.644;2024-02-26T04:24:49;5.40;99.90
53294;DHT22;39181;53.440;5.644;2024-02-26T04:27:15;5.30;99.90
53294;DHT22;39181;53.440;5.644;2024-02-26T04:29:40;5.20;99.90
53294;DHT22;39181;53.440;5.644;2024-02-26T04:32:06;5.40;99.90
53294;DHT22;39181;53.440;5.644;2024-02-26T04:34:32;5.30;99.90
53294;DHT22;39181;53.440;5.644;2024-02-26T04:36:57;5.40;99.90
53294;DHT22;39181;53.440;5.644;2024-02-26T04:39:23;5.30;99.90
53294;DHT22;39181;53.440;5.644;2024-02-26T04:41:49;5.20;99.90
53294;DHT22;39181;53.440;5.644;2024-02-26T04:44:14;5.30;99.90
53294;DHT22;39181;53.440;5.644;2024-02-26T04:46:40;5.20;99.90
53294;DHT22;39181;53.440;5.644;2024-02-26T04:49:05;5.20;99.90
53294;DHT22;39181;53.440;5.644;2024-02-26T04:51:31;5.00;99.90
53294;DHT22;39181;53.440;5.644;2024-02-26T04:53:57;5.00;99.90
53294;DHT22;39181;53.440;5.644;2024-02-26T04:56:22;5.30;99.90
53294;DHT22;39181;53.440;5.644;2024-02-26T04:58:48;5.20;99.90
53294;DHT22;39181;53.440;5.644;2024-02-26T05:01:14;5.40;99.90
53294;DHT22;39181;53.440;5.644;2024-02-26T05:03:41;5.10;99.90
53294;DHT22;39181;53.440;5.644;2024-02-26T05:06:07;5.30;99.90
53294;DHT22;39181;53.440;5.644;2024-02-26T05:08:32;5.20;99.90
53294;DHT22;39181;53.440;5.644;2024-02-26T05:11:01;5.30;99.90
53294;DHT22;39181;53.440;5.644;2024-02-26T05:13:28;5.40;99.90
53294;DHT22;39181;53.440;5.644;2024-02-26T05:15:54;5.30;99.90
53294;DHT22;39181;53.440;5.644;2024-02-26T05:18:19;5.40;99.90
53294;DHT22;39181;53.440;5.644;2024-02-26T05:20:45;5.30;99.90
53294;DHT22;39181;53.440;5.644;2024-02-26T05:23:10;5.20;99.90
53294;DHT22;39181;53.440;5.644;2024-02-26T05:25:36;5.10;99.90
53294;DHT22;39181;53.440;5.644;2024-02-26T05:28:01;5.10;99.90
53294;DHT22;39181;53.440;5.644;2024-02-26T05:30:27;5.00;99.90
53294;DHT22;39181;53.440;5.644;2024-02-26T05:32:53;5.00;99.90
53294;DHT22;39181;53.440;5.644;2024-02-26T05:35:19;4.90;99.90
53294;DHT22;39181;53.440;5.644;2024-02-26T05:37:45;5.00;99.90
53294;DHT22;39181;53.440;5.644;2024-02-26T05:40:11;4.80;99.90
53294;DHT22;39181;53.440;5.644;2024-02-26T05:42:36;4.80;99.90
53294;DHT22;39181;53.440;5.644;2024-02-26T05:45:02;5.10;99.90
53294;DHT22;39181;53.440;5.644;2024-02-26T05:47:34;5.00;99.90
53294;DHT22;39181;53.440;5.644;2024-02-26T05:50:01;5.20;99.90
53294;DHT22;39181;53.440;5.644;2024-02-26T05:52:27;5.10;99.90
53294;DHT22;39181;53.440;5.644;2024-02-26T05:54:53;5.00;99.90
53294;DHT22;39181;53.440;5.644;2024-02-26T05:57:19;5.00;99.90
53294;DHT22;39181;53.440;5.644;2024-02-26T05:59:45;5.00;99.90
53294;DHT22;39181;53.440;5.644;2024-02-26T06:02:10;4.90;99.90
53294;DHT22;39181;53.440;5.644;2024-02-26T06:04:36;4.80;99.90
53294;DHT22;39181;53.440;5.644;2024-02-26T06:07:02;4.90;99.90
53294;DHT22;39181;53.440;5.644;2024-02-26T06:09:27;5.00;99.90
53294;DHT22;39181;53.440;5.644;2024-02-26T06:11:53;5.00;99.90
53294;DHT22;39181;53.440;5.644;2024-02-26T06:14:19;5.10;99.90
53294;DHT22;39181;53.440;5.644;2024-02-26T06:16:46;5.10;99.90
53294;DHT22;39181;53.440;5.644;2024-02-26T06:19:11;4.90;99.90
53294;DHT22;39181;53.440;5.644;2024-02-26T06:21:37;4.90;99.90
53294;DHT22;39181;53.440;5.644;2024-02-26T06:24:06;4.80;99.90
53294;DHT22;39181;53.440;5.644;2024-02-26T06:26:31;5.00;99.90
53294;DHT22;39181;53.440;5.644;2024-02-26T06:28:58;4.90;99.90
53294;DHT22;39181;53.440;5.644;2024-02-26T06:31:24;5.00;99.90
53294;DHT22;39181;53.440;5.644;2024-02-26T06:33:53;4.80;99.90
53294;DHT22;39181;53.440;5.644;2024-02-26T06:36:18;5.10;99.90
53294;DHT22;39181;53.440;5.644;2024-02-26T06:38:44;4.80;99.90
53294;DHT22;39181;53.440;5.644;2024-02-26T06:41:10;4.90;99.90
53294;DHT22;39181;53.440;5.644;2024-02-26T06:43:36;5.10;99.90
53294;DHT22;39181;53.440;5.644;2024-02-26T06:46:02;5.00;99.90
53294;DHT22;39181;53.440;5.644;2024-02-26T06:48:28;5.00;99.90
53294;DHT22;39181;53.440;5.644;2024-02-26T06:50:53;5.00;99.90
53294;DHT22;39181;53.440;5.644;2024-02-26T06:53:25;5.00;99.90
53294;DHT22;39181;53.440;5.644;2024-02-26T06:55:57;5.20;99.90
53294;DHT22;39181;53.440;5.644;2024-02-26T06:58:23;5.10;99.90
53294;DHT22;39181;53.440;5.644;2024-02-26T07:00:49;5.30;99.90
53294;DHT22;39181;53.440;5.644;2024-02-26T07:03:14;5.30;99.90
53294;DHT22;39181;53.440;5.644;2024-02-26T07:05:40;5.30;99.90
53294;DHT22;39181;53.440;5.644;2024-02-26T07:08:06;5.10;99.90
53294;DHT22;39181;53.440;5.644;2024-02-26T07:10:32;5.30;99.90
53294;DHT22;39181;53.440;5.644;2024-02-26T07:12:57;5.20;99.90
53294;DHT22;39181;53.440;5.644;2024-02-26T07:15:23;5.10;99.90
53294;DHT22;39181;53.440;5.644;2024-02-26T07:17:48;5.10;99.90
53294;DHT22;39181;53.440;5.644;2024-02-26T07:20:15;5.10;99.90
53294;DHT22;39181;53.440;5.644;2024-02-26T07:22:40;5.10;99.90
53294;DHT22;39181;53.440;5.644;2024-02-26T07:25:08;5.20;99.90
53294;DHT22;39181;53.440;5.644;2024-02-26T07:27:35;5.10;99.90
53294;DHT22;39181;53.440;5.644;2024-02-26T07:30:00;5.10;99.90
53294;DHT22;39181;53.440;5.644;2024-02-26T07:32:26;5.20;99.90
53294;DHT22;39181;53.440;5.644;2024-02-26T07:34:52;5.10;99.90
53294;DHT22;39181;53.440;5.644;2024-02-26T07:37:17;5.10;99.90
53294;DHT22;39181;53.440;5.644;2024-02-26T07:39:43;5.30;99.90
53294;DHT22;39181;53.440;5.644;2024-02-26T07:42:08;5.20;99.90
53294;DHT22;39181;53.440;5.644;2024-02-26T07:44:34;5.20;99.90
53294;DHT22;39181;53.440;5.644;2024-02-26T07:46:59;5.20;99.90
53294;DHT22;39181;53.440;5.644;2024-02-26T07:49:25;5.30;99.90
53294;DHT22;39181;53.440;5.644;2024-02-26T07:51:51;5.20;99.90
53294;DHT22;39181;53.440;5.644;2024-02-26T07:54:16;5.20;99.90
53294;DHT22;39181;53.440;5.644;2024-02-26T07:56:44;5.30;99.90
53294;DHT22;39181;53.440;5.644;2024-02-26T07:59:10;5.50;99.90
53294;DHT22;39181;53.440;5.644;2024-02-26T08:01:36;5.40;99.90
53294;DHT22;39181;53.440;5.644;2024-02-26T08:04:04;5.60;99.90
53294;DHT22;39181;53.440;5.644;2024-02-26T08:06:30;5.60;99.90
53294;DHT22;39181;53.440;5.644;2024-02-26T08:08:56;5.70;99.90
53294;DHT22;39181;53.440;5.644;2024-02-26T08:11:21;5.60;99.90
53294;DHT22;39181;53.440;5.644;2024-02-26T08:13:47;5.60;99.90
53294;DHT22;39181;53.440;5.644;2024-02-26T08:16:12;5.70;99.90
53294;DHT22;39181;53.440;5.644;2024-02-26T08:18:38;5.60;99.90
53294;DHT22;39181;53.440;5.644;2024-02-26T08:21:04;5.70;99.90
53294;DHT22;39181;53.440;5.644;2024-02-26T08:23:29;5.70;99.90
53294;DHT22;39181;53.440;5.644;2024-02-26T08:25:56;5.60;99.90
53294;DHT22;39181;53.440;5.644;2024-02-26T08:28:22;5.60;99.90
53294;DHT22;39181;53.440;5.644;2024-02-26T08:30:47;5.60;99.90
53294;DHT22;39181;53.440;5.644;2024-02-26T08:33:13;5.90;99.90
53294;DHT22;39181;53.440;5.644;2024-02-26T08:35:39;5.80;99.90
53294;DHT22;39181;53.440;5.644;2024-02-26T08:38:04;5.80;99.90
53294;DHT22;39181;53.440;5.644;2024-02-26T08:40:30;5.90;99.90
53294;DHT22;39181;53.440;5.644;2024-02-26T08:42:55;6.00;99.90
53294;DHT22;39181;53.440;5.644;2024-02-26T08:45:21;6.10;99.90
53294;DHT22;39181;53.440;5.644;2024-02-26T08:47:47;6.10;99.90
53294;DHT22;39181;53.440;5.644;2024-02-26T08:50:14;6.10;99.90
53294;DHT22;39181;53.440;5.644;2024-02-26T08:52:40;6.00;99.90
53294;DHT22;39181;53.440;5.644;2024-02-26T08:55:06;6.20;99.90
53294;DHT22;39181;53.440;5.644;2024-02-26T08:57:34;6.00;99.90
53294;DHT22;39181;53.440;5.644;2024-02-26T09:00:00;6.20;99.90
53294;DHT22;39181;53.440;5.644;2024-02-26T09:02:26;6.10;99.90
53294;DHT22;39181;53.440;5.644;2024-02-26T09:04:52;6.50;99.90
53294;DHT22;39181;53.440;5.644;2024-02-26T09:07:20;6.20;99.90
53294;DHT22;39181;53.440;5.644;2024-02-26T09:09:46;6.30;99.90
53294;DHT22;39181;53.440;5.644;2024-02-26T09:12:12;6.30;99.90
53294;DHT22;39181;53.440;5.644;2024-02-26T09:14:37;6.30;99.90
53294;DHT22;39181;53.440;5.644;2024-02-26T09:17:03;6.40;99.90
53294;DHT22;39181;53.440;5.644;2024-02-26T09:19:29;6.40;99.90
53294;DHT22;39181;53.440;5.644;2024-02-26T09:21:54;6.40;99.90
53294;DHT22;39181;53.440;5.644;2024-02-26T09:24:24;6.50;99.90
53294;DHT22;39181;53.440;5.644;2024-02-26T09:26:50;6.60;99.90
53294;DHT22;39181;53.440;5.644;2024-02-26T09:29:15;6.50;99.90
53294;DHT22;39181;53.440;5.644;2024-02-26T09:31:41;7.00;99.90
53294;DHT22;39181;53.440;5.644;2024-02-26T09:34:07;6.60;99.90
53294;DHT22;39181;53.440;5.644;2024-02-26T09:36:33;6.30;99.90
53294;DHT22;39181;53.440;5.644;2024-02-26T09:38:59;6.20;99.90
53294;DHT22;39181;53.440;5.644;2024-02-26T09:41:28;6.30;99.90
53294;DHT22;39181;53.440;5.644;2024-02-26T09:43:57;6.30;99.90
53294;DHT22;39181;53.440;5.644;2024-02-26T09:46:23;6.40;99.90
53294;DHT22;39181;53.440;5.644;2024-02-26T09:48:50;6.50;99.90
53294;DHT22;39181;53.440;5.644;2024-02-26T09:51:16;6.40;99.90
53294;DHT22;39181;53.440;5.644;2024-02-26T09:53:44;6.50;99.90
53294;DHT22;39181;53.440;5.644;2024-02-26T09:56:11;6.50;99.90
53294;DHT22;39181;53.440;5.644;2024-02-26T09:58:39;6.40;99.90
53294;DHT22;39181;53.440;5.644;2024-02-26T10:01:07;6.40;99.90
53294;DHT22;39181;53.440;5.644;2024-02-26T10:03:43;6.60;99.90
53294;DHT22;39181;53.440;5.644;2024-02-26T10:06:10;6.60;99.90
53294;DHT22;39181;53.440;5.644;2024-02-26T10:08:36;6.70;99.90
53294;DHT22;39181;53.440;5.644;2024-02-26T10:11:03;6.80;99.90
53294;DHT22;39181;53.440;5.644;2024-02-26T10:13:30;6.60;99.90
53294;DHT22;39181;53.440;5.644;2024-02-26T10:15:55;6.50;99.90
53294;DHT22;39181;53.440;5.644;2024-02-26T10:18:22;6.60;99.90
53294;DHT22;39181;53.440;5.644;2024-02-26T10:21:01;6.60;99.90
53294;DHT22;39181;53.440;5.644;2024-02-26T10:23:27;6.70;99.90
53294;DHT22;39181;53.440;5.644;2024-02-26T10:25:54;6.60;99.90
53294;DHT22;39181;53.440;5.644;2024-02-26T10:28:20;6.50;99.90
53294;DHT22;39181;53.440;5.644;2024-02-26T10:30:46;6.50;99.90
53294;DHT22;39181;53.440;5.644;2024-02-26T10:33:12;6.60;99.90
53294;DHT22;39181;53.440;5.644;2024-02-26T10:35:38;6.60;99.90
53294;DHT22;39181;53.440;5.644;2024-02-26T10:38:07;6.60;99.90
53294;DHT22;39181;53.440;5.644;2024-02-26T10:40:33;6.40;99.90
53294;DHT22;39181;53.440;5.644;2024-02-26T10:42:58;6.40;99.90
53294;DHT22;39181;53.440;5.644;2024-02-26T10:45:24;6.50;99.90
53294;DHT22;39181;53.440;5.644;2024-02-26T10:47:50;6.50;99.90
53294;DHT22;39181;53.440;5.644;2024-02-26T10:50:16;7.00;99.90
53294;DHT22;39181;53.440;5.644;2024-02-26T10:52:42;6.60;99.90
53294;DHT22;39181;53.440;5.644;2024-02-26T10:55:15;6.70;99.90
53294;DHT22;39181;53.440;5.644;2024-02-26T10:57:44;6.80;99.90
53294;DHT22;39181;53.440;5.644;2024-02-26T11:00:14;6.80;99.90
53294;DHT22;39181;53.440;5.644;2024-02-26T11:02:41;6.80;99.90
53294;DHT22;39181;53.440;5.644;2024-02-26T11:05:08;6.90;99.90
53294;DHT22;39181;53.440;5.644;2024-02-26T11:07:36;7.10;99.90
53294;DHT22;39181;53.440;5.644;2024-02-26T11:10:03;7.00;99.90
53294;DHT22;39181;53.440;5.644;2024-02-26T11:12:31;6.80;99.90
53294;DHT22;39181;53.440;5.644;2024-02-26T11:14:57;6.80;99.90
53294;DHT22;39181;53.440;5.644;2024-02-26T11:17:26;6.90;99.90
53294;DHT22;39181;53.440;5.644;2024-02-26T11:19:56;6.80;99.90
53294;DHT22;39181;53.440;5.644;2024-02-26T11:22:24;6.90;99.90
53294;DHT22;39181;53.440;5.644;2024-02-26T11:24:52;6.90;99.90
53294;DHT22;39181;53.440;5.644;2024-02-26T11:27:19;6.80;99.90
53294;DHT22;39181;53.440;5.644;2024-02-26T11:29:52;7.00;99.90
53294;DHT22;39181;53.440;5.644;2024-02-26T11:32:19;7.20;99.90
53294;DHT22;39181;53.440;5.644;2024-02-26T11:34:45;7.00;99.90
53294;DHT22;39181;53.440;5.644;2024-02-26T11:37:12;7.10;99.90
53294;DHT22;39181;53.440;5.644;2024-02-26T11:39:42;7.10;99.90
53294;DHT22;39181;53.440;5.644;2024-02-26T11:42:13;7.10;99.90
53294;DHT22;39181;53.440;5.644;2024-02-26T11:44:39;7.00;99.90
53294;DHT22;39181;53.440;5.644;2024-02-26T11:47:22;7.00;99.90
53294;DHT22;39181;53.440;5.644;2024-02-26T11:49:48;7.00;99.90
53294;DHT22;39181;53.440;5.644;2024-02-26T11:52:15;7.20;99.90
53294;DHT22;39181;53.440;5.644;2024-02-26T11:54:53;7.50;99.90
53294;DHT22;39181;53.440;5.644;2024-02-26T11:59:47;6.90;99.90
53294;DHT22;39181;53.440;5.644;2024-02-26T12:05:24;6.80;99.90
53294;DHT22;39181;53.440;5.644;2024-02-26T12:07:53;6.60;99.90
53294;DHT22;39181;53.440;5.644;2024-02-26T12:10:23;6.90;99.90
53294;DHT22;39181;53.440;5.644;2024-02-26T12:12:58;6.70;99.90
53294;DHT22;39181;53.440;5.644;2024-02-26T12:15:31;6.90;99.90
53294;DHT22;39181;53.440;5.644;2024-02-26T12:17:58;6.70;99.90
53294;DHT22;39181;53.440;5.644;2024-02-26T12:20:25;6.50;99.90
53294;DHT22;39181;53.440;5.644;2024-02-26T12:22:50;6.50;99.90
53294;DHT22;39181;53.440;5.644;2024-02-26T12:25:20;6.60;99.90
53294;DHT22;39181;53.440;5.644;2024-02-26T12:27:46;6.60;99.90
53294;DHT22;39181;53.440;5.644;2024-02-26T12:30:12;6.50;99.90
53294;DHT22;39181;53.440;5.644;2024-02-26T12:32:38;6.50;99.90
53294;DHT22;39181;53.440;5.644;2024-02-26T12:35:05;6.60;99.90
53294;DHT22;39181;53.440;5.644;2024-02-26T12:37:32;6.50;99.90
53294;DHT22;39181;53.440;5.644;2024-02-26T12:39:58;6.40;99.90
53294;DHT22;39181;53.440;5.644;2024-02-26T12:42:23;6.30;99.90
53294;DHT22;39181;53.440;5.644;2024-02-26T12:44:50;6.20;99.90
53294;DHT22;39181;53.440;5.644;2024-02-26T12:47:17;6.30;99.90
53294;DHT22;39181;53.440;5.644;2024-02-26T12:49:47;6.30;99.90
53294;DHT22;39181;53.440;5.644;2024-02-26T12:52:13;6.10;99.90
53294;DHT22;39181;53.440;5.644;2024-02-26T12:54:39;6.10;99.90
53294;DHT22;39181;53.440;5.644;2024-02-26T12:57:06;6.20;99.90
53294;DHT22;39181;53.440;5.644;2024-02-26T12:59:34;5.90;99.90
53294;DHT22;39181;53.440;5.644;2024-02-26T13:02:01;6.10;99.90
53294;DHT22;39181;53.440;5.644;2024-02-26T13:04:29;6.20;99.90
53294;DHT22;39181;53.440;5.644;2024-02-26T13:06:55;6.10;99.90
53294;DHT22;39181;53.440;5.644;2024-02-26T13:09:26;6.10;99.90
53294;DHT22;39181;53.440;5.644;2024-02-26T13:11:55;6.20;99.90
53294;DHT22;39181;53.440;5.644;2024-02-26T13:14:21;6.20;99.90
53294;DHT22;39181;53.440;5.644;2024-02-26T13:16:57;6.10;99.90
53294;DHT22;39181;53.440;5.644;2024-02-26T13:19:24;6.30;99.90
53294;DHT22;39181;53.440;5.644;2024-02-26T13:21:49;6.20;99.90
53294;DHT22;39181;53.440;5.644;2024-02-26T13:24:15;6.10;99.90
53294;DHT22;39181;53.440;5.644;2024-02-26T13:26:41;6.10;99.90
53294;DHT22;39181;53.440;5.644;2024-02-26T13:29:07;6.00;99.90
53294;DHT22;39181;53.440;5.644;2024-02-26T13:31:39;6.00;99.90
53294;DHT22;39181;53.440;5.644;2024-02-26T13:34:05;6.00;99.90
53294;DHT22;39181;53.440;5.644;2024-02-26T13:36:31;6.00;99.90
53294;DHT22;39181;53.440;5.644;2024-02-26T13:38:56;5.90;99.90
53294;DHT22;39181;53.440;5.644;2024-02-26T13:41:22;6.00;99.90
53294;DHT22;39181;53.440;5.644;2024-02-26T13:43:48;6.00;99.90
53294;DHT22;39181;53.440;5.644;2024-02-26T13:46:15;5.80;99.90
53294;DHT22;39181;53.440;5.644;2024-02-26T13:48:41;5.70;99.90
53294;DHT22;39181;53.440;5.644;2024-02-26T13:51:07;6.00;99.90
53294;DHT22;39181;53.440;5.644;2024-02-26T13:53:33;6.00;99.90
53294;DHT22;39181;53.440;5.644;2024-02-26T13:55:59;5.90;99.90
53294;DHT22;39181;53.440;5.644;2024-02-26T13:58:26;5.90;99.90
53294;DHT22;39181;53.440;5.644;2024-02-26T14:00:53;6.00;99.90
53294;DHT22;39181;53.440;5.644;2024-02-26T14:03:21;5.90;99.90
53294;DHT22;39181;53.440;5.644;2024-02-26T14:05:47;6.10;99.90
53294;DHT22;39181;53.440;5.644;2024-02-26T14:08:13;6.10;99.90
53294;DHT22;39181;53.440;5.644;2024-02-26T14:10:39;6.00;99.90
53294;DHT22;39181;53.440;5.644;2024-02-26T14:13:04;6.20;99.90
53294;DHT22;39181;53.440;5.644;2024-02-26T14:15:30;6.30;99.90
53294;DHT22;39181;53.440;5.644;2024-02-26T14:17:56;6.10;99.90
53294;DHT22;39181;53.440;5.644;2024-02-26T14:20:23;6.10;99.90
53294;DHT22;39181;53.440;5.644;2024-02-26T14:22:51;6.10;99.90
53294;DHT22;39181;53.440;5.644;2024-02-26T14:25:21;6.20;99.90
53294;DHT22;39181;53.440;5.644;2024-02-26T14:27:47;6.10;99.90
53294;DHT22;39181;53.440;5.644;2024-02-26T14:30:13;5.90;99.90
53294;DHT22;39181;53.440;5.644;2024-02-26T14:32:39;5.90;99.90
53294;DHT22;39181;53.440;5.644;2024-02-26T14:35:09;5.90;99.90
53294;DHT22;39181;53.440;5.644;2024-02-26T14:37:36;6.00;99.90
53294;DHT22;39181;53.440;5.644;2024-02-26T14:40:02;6.10;99.90
53294;DHT22;39181;53.440;5.644;2024-02-26T14:42:29;5.90;99.90
53294;DHT22;39181;53.440;5.644;2024-02-26T14:44:54;5.90;99.90
53294;DHT22;39181;53.440;5.644;2024-02-26T14:47:20;5.90;99.90
53294;DHT22;39181;53.440;5.644;2024-02-26T14:49:45;6.10;99.90
53294;DHT22;39181;53.440;5.644;2024-02-26T14:52:14;6.00;99.90
53294;DHT22;39181;53.440;5.644;2024-02-26T14:54:39;6.00;99.90
53294;DHT22;39181;53.440;5.644;2024-02-26T14:57:05;5.90;99.90
53294;DHT22;39181;53.440;5.644;2024-02-26T14:59:32;6.00;99.90
53294;DHT22;39181;53.440;5.644;2024-02-26T15:01:58;6.00;99.90
53294;DHT22;39181;53.440;5.644;2024-02-26T15:04:25;6.00;99.90
53294;DHT22;39181;53.440;5.644;2024-02-26T15:06:51;6.00;99.90
53294;DHT22;39181;53.440;5.644;2024-02-26T15:09:17;6.00;99.90
53294;DHT22;39181;53.440;5.644;2024-02-26T15:11:43;5.80;99.90
53294;DHT22;39181;53.440;5.644;2024-02-26T15:14:10;5.80;99.90
53294;DHT22;39181;53.440;5.644;2024-02-26T15:16:36;6.00;99.90
53294;DHT22;39181;53.440;5.644;2024-02-26T15:19:02;6.10;99.90
53294;DHT22;39181;53.440;5.644;2024-02-26T15:21:28;6.10;99.90
53294;DHT22;39181;53.440;5.644;2024-02-26T15:23:54;6.10;99.90
53294;DHT22;39181;53.440;5.644;2024-02-26T15:26:20;6.10;99.90
53294;DHT22;39181;53.440;5.644;2024-02-26T15:28:46;6.10;99.90
53294;DHT22;39181;53.440;5.644;2024-02-26T15:31:12;6.00;99.90
53294;DHT22;39181;53.440;5.644;2024-02-26T15:33:37;6.10;99.90
53294;DHT22;39181;53.440;5.644;2024-02-26T15:36:03;6.10;99.90
53294;DHT22;39181;53.440;5.644;2024-02-26T15:38:29;6.00;99.90
53294;DHT22;39181;53.440;5.644;2024-02-26T15:40:55;5.90;99.90
53294;DHT22;39181;53.440;5.644;2024-02-26T15:43:20;6.10;99.90
53294;DHT22;39181;53.440;5.644;2024-02-26T15:45:47;6.00;99.90